.
WxDataArchive / Data Records for 2006-05-14
2006-05-13 May 2006 2006-05-15

Data Records for Sunday, 14 May 2006

Time	Temp	Chill	HIndex	Humid	Dewpt	 Wind 	HiWind	WindDir	Rain 	Barom 
-----	----	-----	------	-----	-----	------	------	-------	-----	----- 
00:00	45.4	45.4	45.4	90	42.6	0	0	---	0.00	29.750 
00:05	45.4	45.4	45.4	90	42.6	0	0	---	0.00	29.750 
00:10	45.4	45.4	45.4	91	42.9	0	1	248	0.00	29.750 
00:15	45.4	45.4	45.4	91	42.9	0	1	248	0.00	29.750 
00:20	45.5	45.5	45.5	91	43.0	0	1	248	0.00	29.750 
00:25	45.5	45.5	45.5	91	43.0	0	1	248	0.00	29.750 
00:30	45.5	45.5	45.5	91	43.0	0	0	---	0.00	29.746 
00:35	45.5	45.5	45.5	91	43.0	0	0	---	0.00	29.746 
00:40	45.5	45.5	45.5	91	43.0	0	0	---	0.00	29.746 
00:45	45.5	45.5	45.5	91	43.0	0	0	---	0.00	29.742 
00:50	45.5	45.5	45.5	92	43.3	0	0	---	0.00	29.742 
00:55	45.5	45.5	45.5	92	43.3	0	1	248	0.00	29.742 
01:00	45.5	45.5	45.5	92	43.3	0	0	---	0.00	29.743 
01:05	45.5	45.5	45.5	92	43.3	0	0	---	0.00	29.743 
01:10	45.5	45.5	45.5	92	43.3	0	0	---	0.00	29.743 
01:15	45.5	45.5	45.5	92	43.3	0	0	---	0.00	29.741 
01:20	45.4	45.4	45.4	92	43.2	0	0	---	0.00	29.741 
01:25	45.4	45.4	45.4	92	43.2	0	0	---	0.00	29.741 
01:30	45.4	45.4	45.4	92	43.2	0	0	---	0.00	29.742 
01:35	45.4	45.4	45.4	92	43.2	0	0	---	0.00	29.742 
01:40	45.4	45.4	45.4	92	43.2	0	0	---	0.00	29.742 
01:45	45.4	45.4	45.4	92	43.2	0	0	---	0.00	29.740 
01:50	45.4	45.4	45.4	92	43.2	0	0	---	0.00	29.740 
01:55	45.4	45.4	45.4	92	43.2	0	0	---	0.00	29.740 
02:00	45.4	45.4	45.4	92	43.2	0	0	---	0.00	29.737 
02:05	45.4	45.4	45.4	92	43.2	0	0	---	0.00	29.737 
02:10	45.5	45.5	45.5	92	43.3	0	1	248	0.00	29.737 
02:15	45.5	45.5	45.5	92	43.3	0	0	---	0.00	29.733 
02:20	45.7	45.7	45.7	93	43.8	0	1	248	0.00	29.733 
02:25	45.7	45.7	45.7	93	43.8	0	0	---	0.00	29.733 
02:30	45.7	45.7	45.7	93	43.8	0	0	---	0.00	29.731 
02:35	45.7	45.7	45.7	92	43.5	0	0	---	0.00	29.731 
02:40	45.5	45.5	45.5	93	43.6	0	0	---	0.00	29.731 
02:45	45.5	45.5	45.5	92	43.3	0	0	---	0.00	29.731 
02:50	45.5	45.5	45.5	93	43.6	0	0	---	0.00	29.731 
02:55	45.5	45.5	45.5	93	43.6	0	0	---	0.00	29.731 
03:00	45.5	45.5	45.5	93	43.6	0	1	248	0.00	29.731 
03:05	45.5	45.5	45.5	93	43.6	0	0	---	0.00	29.731 
03:10	45.5	45.5	45.5	93	43.6	0	0	---	0.00	29.731 
03:15	45.7	45.7	45.7	93	43.8	0	1	248	0.00	29.728 
03:20	45.7	45.7	45.7	93	43.8	0	0	---	0.00	29.728 
03:25	45.5	45.5	45.5	93	43.6	0	0	---	0.00	29.728 
03:30	45.5	45.5	45.5	93	43.6	0	0	---	0.00	29.725 
03:35	45.5	45.5	45.5	93	43.6	0	0	---	0.00	29.725 
03:40	45.4	45.4	45.4	93	43.5	0	0	---	0.00	29.725 
03:45	45.4	45.4	45.4	93	43.5	0	0	---	0.00	29.726 
03:50	45.4	45.4	45.4	93	43.5	0	0	---	0.00	29.726 
03:55	45.2	45.2	45.2	93	43.3	0	0	---	0.00	29.726 
04:00	45.2	45.2	45.2	93	43.3	0	0	---	0.00	29.726 
04:05	45.1	45.1	45.1	93	43.2	0	0	---	0.00	29.726 
04:10	45.1	45.1	45.1	93	43.2	0	0	---	0.00	29.726 
04:15	45.1	45.1	45.1	93	43.2	0	0	---	0.00	29.724 
04:20	44.9	44.9	44.9	93	43.0	0	0	---	0.00	29.724 
04:25	44.9	44.9	44.9	93	43.0	0	0	---	0.00	29.724 
04:30	44.8	44.8	44.8	93	42.9	0	0	---	0.00	29.728 
04:35	44.8	44.8	44.8	93	42.9	0	0	---	0.00	29.728 
04:40	44.8	44.8	44.8	93	42.9	0	0	---	0.00	29.728 
04:45	44.8	44.8	44.8	94	43.2	0	0	---	0.00	29.724 
04:50	44.8	44.8	44.8	94	43.2	0	0	---	0.00	29.724 
04:55	44.8	44.8	44.8	94	43.2	0	0	---	0.00	29.724 
05:00	44.8	44.8	44.8	94	43.2	0	0	---	0.00	29.721 
05:05	44.6	44.6	44.6	94	43.0	0	0	---	0.00	29.721 
05:10	44.6	44.6	44.6	94	43.0	0	0	---	0.00	29.721 
05:15	44.6	44.6	44.6	94	43.0	0	0	---	0.00	29.725 
05:20	44.6	44.6	44.6	94	43.0	0	0	---	0.00	29.725 
05:25	44.6	44.6	44.6	94	43.0	0	0	---	0.00	29.725 
05:30	44.5	44.5	44.5	94	42.9	0	0	---	0.00	29.729 
05:35	44.5	44.5	44.5	94	42.9	0	0	---	0.00	29.729 
05:40	44.5	44.5	44.5	94	42.9	0	0	---	0.00	29.729 
05:45	44.5	44.5	44.5	94	42.9	0	0	---	0.00	29.728 
05:50	44.3	44.3	44.3	94	42.7	0	0	---	0.00	29.728 
05:55	44.3	44.3	44.3	94	42.7	0	0	---	0.00	29.728 
06:00	44.3	44.3	44.3	94	42.7	0	0	---	0.00	29.734 
06:05	44.3	44.3	44.3	94	42.7	0	0	---	0.00	29.734 
06:10	44.3	44.3	44.3	94	42.7	0	0	---	0.00	29.734 
06:15	44.3	44.3	44.3	94	42.7	0	0	---	0.00	29.738 
06:20	44.5	44.5	44.5	94	42.9	0	0	---	0.00	29.738 
06:25	44.5	44.5	44.5	94	42.9	0	0	---	0.00	29.738 
06:30	44.5	44.5	44.5	94	42.9	0	0	---	0.00	29.745 
06:35	44.6	44.6	44.6	94	43.0	0	0	---	0.00	29.745 
06:40	44.8	44.8	44.8	94	43.2	0	0	---	0.00	29.745 
06:45	44.8	44.8	44.8	95	43.5	0	0	---	0.00	29.748 
06:50	44.9	44.9	44.9	95	43.6	0	0	---	0.00	29.748 
06:55	45.1	45.1	45.1	95	43.8	0	0	---	0.00	29.748 
07:00	45.2	45.2	45.2	95	43.9	0	0	---	0.00	29.749 
07:05	45.2	45.2	45.2	95	43.9	0	0	---	0.00	29.749 
07:10	45.2	45.2	45.2	95	43.9	0	0	---	0.00	29.749 
07:15	45.4	45.4	45.4	95	44.1	0	0	---	0.00	29.751 
07:20	45.4	45.4	45.4	95	44.1	0	0	---	0.00	29.751 
07:25	45.5	45.5	45.5	95	44.2	0	0	---	0.00	29.751 
07:30	45.7	45.7	45.7	95	44.4	0	0	---	0.00	29.753 
07:35	45.8	45.8	45.8	95	44.4	0	0	---	0.00	29.753 
07:40	45.8	45.8	45.8	95	44.4	0	0	---	0.00	29.753 
07:45	46.0	46.0	46.0	95	44.6	0	0	---	0.00	29.762 
07:50	46.0	46.0	46.0	95	44.6	0	0	---	0.00	29.762 
07:55	46.1	46.1	46.1	95	44.7	0	0	---	0.00	29.762 
08:00	46.2	46.2	46.2	95	44.8	0	0	---	0.00	29.764 
08:05	46.2	46.2	46.2	95	44.8	0	0	---	0.00	29.764 
08:10	46.4	46.4	46.4	95	45.0	0	0	---	0.00	29.764 
08:15	46.4	46.4	46.4	95	45.0	0	0	---	0.00	29.765 
08:20	46.5	46.5	46.5	95	45.1	0	1	248	0.00	29.765 
08:25	46.7	46.7	46.7	95	45.3	0	0	---	0.00	29.765 
08:30	46.8	46.8	46.8	94	45.2	0	1	248	0.00	29.767 
08:35	46.8	46.8	46.8	94	45.2	0	1	248	0.00	29.767 
08:40	47.0	47.0	47.0	93	45.1	0	2	248	0.00	29.767 
08:45	47.0	47.0	47.0	91	44.5	0	1	248	0.00	29.770 
08:50	47.3	47.3	47.3	90	44.5	0	1	248	0.00	29.770 
08:55	47.6	47.6	47.6	88	44.2	0	2	248	0.00	29.770 
09:00	47.9	47.9	47.9	87	44.2	0	1	248	0.00	29.774 
09:05	48.0	48.0	48.0	86	44.0	0	1	248	0.00	29.774 
09:10	48.5	48.5	48.5	87	44.8	0	0	---	0.00	29.774 
09:15	48.8	48.8	48.8	86	44.8	0	0	---	0.00	29.775 
09:20	48.8	48.8	48.8	83	43.9	0	2	248	0.00	29.775 
09:25	48.8	48.8	48.8	84	44.2	0	1	248	0.00	29.775 
09:30	48.9	48.9	48.9	84	44.3	0	2	248	0.00	29.778 
09:35	49.1	49.1	49.1	85	44.8	0	2	248	0.00	29.778 
09:40	49.4	49.4	49.4	85	45.1	0	1	248	0.00	29.778 
09:45	49.5	49.5	49.5	83	44.6	0	1	248	0.00	29.779 
09:50	49.9	49.9	49.9	83	44.9	0	1	248	0.00	29.779 
09:55	50.2	50.2	50.2	81	44.6	0	1	248	0.00	29.779 
10:00	50.4	50.4	50.4	80	44.5	0	2	248	0.00	29.778 
10:05	50.5	50.5	50.5	81	44.9	0	2	202	0.00	29.778 
10:10	50.5	50.5	50.5	79	44.2	0	1	202	0.00	29.778 
10:15	50.5	50.5	50.5	80	44.6	1	3	202	0.00	29.780 
10:20	50.5	50.5	50.5	78	43.9	1	3	90	0.00	29.780 
10:25	50.8	50.8	50.8	80	44.9	0	2	90	0.00	29.780 
10:30	51.3	51.3	51.3	78	44.7	0	1	90	0.00	29.784 
10:35	51.4	51.4	51.4	74	43.4	0	2	90	0.00	29.784 
10:40	51.4	51.4	51.4	74	43.4	1	3	90	0.00	29.784 
10:45	51.3	51.3	51.3	73	42.9	0	2	90	0.00	29.790 
10:50	51.6	51.6	51.6	75	43.9	0	1	90	0.00	29.790 
10:55	51.6	51.6	51.6	76	44.3	1	3	90	0.00	29.790 
11:00	51.4	51.4	51.4	77	44.4	0	2	90	0.00	29.791 
11:05	51.4	51.4	51.4	77	44.4	1	4	90	0.00	29.791 
11:10	51.4	51.4	51.4	76	44.1	1	2	90	0.00	29.791 
11:15	51.3	51.3	51.3	77	44.3	1	2	90	0.00	29.794 
11:20	51.3	51.3	51.3	81	45.7	0	1	90	0.00	29.794 
11:25	51.1	51.1	51.1	80	45.1	1	5	112	0.00	29.794 
11:30	51.0	51.0	51.0	79	44.7	1	3	112	0.00	29.794 
11:35	51.0	51.0	51.0	81	45.4	1	2	112	0.00	29.794 
11:40	51.0	51.0	51.0	79	44.7	1	4	112	0.00	29.794 
11:45	51.0	51.0	51.0	81	45.4	0	2	112	0.00	29.797 
11:50	51.0	51.0	51.0	82	45.7	1	3	112	0.00	29.797 
11:55	51.0	51.0	51.0	82	45.7	1	4	90	0.00	29.797 
12:00	51.0	51.0	51.0	81	45.4	0	1	90	0.00	29.800 
12:05	51.3	51.3	51.3	81	45.7	0	2	90	0.00	29.800 
12:10	51.4	51.4	51.4	78	44.8	1	3	90	0.00	29.800 
12:15	51.4	51.4	51.4	78	44.8	1	3	90	0.00	29.807 
12:20	51.4	51.4	51.4	80	45.4	1	4	90	0.00	29.807 
12:25	51.6	51.6	51.6	78	45.0	0	2	68	0.00	29.807 
12:30	51.6	51.6	51.6	79	45.3	0	2	68	0.00	29.807 
12:35	51.3	51.3	51.3	80	45.3	1	3	90	0.00	29.807 
12:40	51.0	51.0	51.0	81	45.4	1	4	90	0.00	29.807 
12:45	50.7	50.7	50.7	82	45.4	0	2	68	0.00	29.810 
12:50	50.7	50.7	50.7	83	45.7	0	1	68	0.00	29.810 
12:55	51.0	51.0	51.0	83	46.0	0	1	68	0.00	29.810 
13:00	51.4	51.4	51.4	82	46.1	0	2	68	0.00	29.809 
13:05	52.0	52.0	52.0	82	46.7	0	3	68	0.00	29.809 
13:10	52.3	52.3	52.3	77	45.3	0	2	68	0.00	29.809 
13:15	52.3	52.3	52.3	79	46.0	0	2	68	0.00	29.809 
13:20	52.2	52.2	52.2	77	45.2	1	3	112	0.00	29.809 
13:25	52.0	52.0	52.0	74	44.0	0	3	112	0.00	29.809 
13:30	52.0	52.0	52.0	78	45.4	1	2	112	0.00	29.811 
13:35	51.9	51.9	51.9	76	44.6	0	2	112	0.00	29.811 
13:40	52.2	52.2	52.2	77	45.2	1	3	112	0.00	29.811 
13:45	52.2	52.2	52.2	77	45.2	1	2	90	0.00	29.812 
13:50	52.3	52.3	52.3	78	45.6	0	3	90	0.00	29.812 
13:55	52.3	52.3	52.3	80	46.3	0	2	90	0.00	29.812 
14:00	52.0	52.0	52.0	79	45.7	1	3	90	0.00	29.814 
14:05	51.9	51.9	51.9	80	45.9	1	2	90	0.00	29.814 
14:10	51.9	51.9	51.9	81	46.3	1	3	90	0.00	29.814 
14:15	52.0	52.0	52.0	82	46.7	1	2	90	0.00	29.813 
14:20	52.0	52.0	52.0	82	46.7	0	2	90	0.00	29.813 
14:25	52.2	52.2	52.2	83	47.2	1	3	90	0.00	29.813 
14:30	52.2	52.2	52.2	83	47.2	0	2	90	0.00	29.820 
14:35	52.0	52.0	52.0	85	47.6	1	3	90	0.00	29.820 
14:40	52.0	52.0	52.0	84	47.3	0	1	90	0.00	29.820 
14:45	51.9	51.9	51.9	83	46.9	0	2	90	0.01	29.822 
14:50	51.7	51.7	51.7	82	46.4	1	3	90	0.00	29.822 
14:55	51.4	51.4	51.4	84	46.7	1	2	90	0.00	29.822 
15:00	51.3	51.3	51.3	84	46.6	1	3	90	0.00	29.825 
15:05	51.3	51.3	51.3	86	47.3	1	2	112	0.00	29.825 
15:10	51.3	51.3	51.3	87	47.6	0	2	112	0.00	29.825 
15:15	51.0	51.0	51.0	87	47.3	1	2	112	0.00	29.827 
15:20	51.1	51.1	51.1	88	47.7	0	1	112	0.01	29.827 
15:25	51.3	51.3	51.3	88	47.9	0	2	112	0.00	29.827 
15:30	51.1	51.1	51.1	86	47.1	0	2	112	0.00	29.828 
15:35	51.1	51.1	51.1	87	47.4	0	2	112	0.00	29.828 
15:40	51.1	51.1	51.1	87	47.4	0	2	112	0.00	29.828 
15:45	51.1	51.1	51.1	86	47.1	0	2	112	0.00	29.829 
15:50	51.1	51.1	51.1	87	47.4	0	1	112	0.00	29.829 
15:55	51.1	51.1	51.1	87	47.4	0	0	---	0.00	29.829 
16:00	51.0	51.0	51.0	84	46.3	0	1	112	0.00	29.830 
16:05	51.0	51.0	51.0	84	46.3	0	1	112	0.01	29.830 
16:10	51.0	51.0	51.0	85	46.7	0	1	112	0.00	29.830 
16:15	51.0	51.0	51.0	87	47.3	0	2	112	0.00	29.827 
16:20	51.0	51.0	51.0	86	47.0	0	1	112	0.00	29.827 
16:25	51.0	51.0	51.0	87	47.3	0	1	112	0.00	29.827 
16:30	51.1	51.1	51.1	88	47.7	0	1	112	0.00	29.826 
16:35	51.0	51.0	51.0	87	47.3	0	1	112	0.00	29.826 
16:40	51.1	51.1	51.1	88	47.7	0	1	112	0.00	29.826 
16:45	51.3	51.3	51.3	88	47.9	0	0	---	0.00	29.826 
16:50	51.6	51.6	51.6	88	48.2	0	1	112	0.00	29.826 
16:55	51.6	51.6	51.6	87	47.9	0	1	112	0.00	29.826 
17:00	51.7	51.7	51.7	88	48.3	0	1	112	0.00	29.825 
17:05	51.9	51.9	51.9	87	48.2	0	3	248	0.00	29.825 
17:10	52.0	52.0	52.0	87	48.3	0	2	248	0.00	29.825 
17:15	52.2	52.2	52.2	87	48.4	0	1	248	0.00	29.825 
17:20	52.2	52.2	52.2	86	48.1	0	2	248	0.00	29.825 
17:25	52.2	52.2	52.2	86	48.1	0	2	248	0.00	29.825 
17:30	52.0	52.0	52.0	87	48.3	0	1	248	0.00	29.826 
17:35	52.0	52.0	52.0	87	48.3	0	2	248	0.00	29.826 
17:40	52.0	52.0	52.0	86	47.9	0	1	248	0.00	29.826 
17:45	52.0	52.0	52.0	87	48.3	0	1	248	0.00	29.827 
17:50	52.0	52.0	52.0	87	48.3	0	2	248	0.00	29.827 
17:55	51.9	51.9	51.9	87	48.2	0	1	270	0.01	29.827 
18:00	51.7	51.7	51.7	87	48.0	0	1	270	0.00	29.829 
18:05	51.7	51.7	51.7	88	48.3	0	1	270	0.00	29.829 
18:10	51.9	51.9	51.9	89	48.8	0	1	270	0.00	29.829 
18:15	51.9	51.9	51.9	88	48.5	0	2	270	0.00	29.827 
18:20	52.0	52.0	52.0	89	48.9	0	1	270	0.00	29.827 
18:25	52.0	52.0	52.0	89	48.9	0	1	270	0.00	29.827 
18:30	52.2	52.2	52.2	89	49.1	0	1	270	0.00	29.828 
18:35	52.0	52.0	52.0	88	48.6	0	1	270	0.00	29.828 
18:40	51.9	51.9	51.9	89	48.8	0	1	270	0.01	29.828 
18:45	51.9	51.9	51.9	89	48.8	0	1	270	0.00	29.830 
18:50	51.7	51.7	51.7	89	48.6	0	1	270	0.00	29.830 
18:55	51.7	51.7	51.7	90	48.9	0	1	270	0.00	29.830 
19:00	51.7	51.7	51.7	90	48.9	0	0	---	0.00	29.827 
19:05	51.6	51.6	51.6	90	48.8	0	1	270	0.00	29.827 
19:10	51.4	51.4	51.4	90	48.6	0	1	270	0.00	29.827 
19:15	51.4	51.4	51.4	90	48.6	0	0	---	0.00	29.831 
19:20	51.4	51.4	51.4	91	48.9	0	1	270	0.00	29.831 
19:25	51.4	51.4	51.4	91	48.9	0	1	270	0.00	29.831 
19:30	51.4	51.4	51.4	91	48.9	0	1	270	0.01	29.836 
19:35	51.3	51.3	51.3	91	48.8	0	1	270	0.00	29.836 
19:40	51.1	51.1	51.1	91	48.6	0	1	270	0.00	29.836 
19:45	51.1	51.1	51.1	92	48.9	0	0	---	0.00	29.838 
19:50	51.1	51.1	51.1	92	48.9	0	0	---	0.01	29.838 
19:55	51.1	51.1	51.1	92	48.9	0	0	---	0.00	29.838 
20:00	51.1	51.1	51.1	92	48.9	0	0	---	0.00	29.840 
20:05	51.1	51.1	51.1	92	48.9	0	1	270	0.00	29.840 
20:10	51.0	51.0	51.0	92	48.8	0	0	---	0.00	29.840 
20:15	51.0	51.0	51.0	93	49.0	0	1	270	0.01	29.838 
20:20	50.8	50.8	50.8	93	48.8	0	0	---	0.00	29.838 
20:25	50.8	50.8	50.8	93	48.8	0	1	270	0.00	29.838 
20:30	50.8	50.8	50.8	93	48.8	0	0	---	0.00	29.839 
20:35	50.7	50.7	50.7	93	48.7	0	1	270	0.01	29.839 
20:40	50.7	50.7	50.7	93	48.7	0	0	---	0.00	29.839 
20:45	50.7	50.7	50.7	93	48.7	0	1	270	0.00	29.839 
20:50	50.7	50.7	50.7	93	48.7	0	0	---	0.00	29.839 
20:55	50.7	50.7	50.7	93	48.7	0	0	---	0.00	29.839 
21:00	50.7	50.7	50.7	93	48.7	0	0	---	0.00	29.840 
21:05	50.7	50.7	50.7	94	49.0	0	1	270	0.00	29.840 
21:10	50.5	50.5	50.5	94	48.8	0	0	---	0.01	29.840 
21:15	50.5	50.5	50.5	94	48.8	0	1	270	0.01	29.838 
21:20	50.5	50.5	50.5	94	48.8	0	1	270	0.00	29.838 
21:25	50.5	50.5	50.5	94	48.8	0	1	270	0.00	29.838 
21:30	50.7	50.7	50.7	94	49.0	0	1	270	0.01	29.835 
21:35	50.7	50.7	50.7	94	49.0	0	1	270	0.00	29.835 
21:40	50.5	50.5	50.5	94	48.8	0	1	270	0.00	29.835 
21:45	50.5	50.5	50.5	94	48.8	0	1	270	0.00	29.835 
21:50	50.5	50.5	50.5	94	48.8	0	1	270	0.00	29.835 
21:55	50.5	50.5	50.5	94	48.8	0	1	270	0.01	29.835 
22:00	50.5	50.5	50.5	94	48.8	0	1	270	0.00	29.831 
22:05	50.5	50.5	50.5	94	48.8	0	0	---	0.00	29.831 
22:10	50.5	50.5	50.5	94	48.8	0	1	270	0.01	29.831 
22:15	50.4	50.4	50.4	94	48.7	0	1	270	0.00	29.831 
22:20	50.4	50.4	50.4	94	48.7	0	1	270	0.00	29.831 
22:25	50.4	50.4	50.4	94	48.7	0	1	270	0.00	29.831 
22:30	50.4	50.4	50.4	94	48.7	0	2	270	0.00	29.825 
22:35	50.4	50.4	50.4	95	49.0	0	2	270	0.00	29.825 
22:40	50.4	50.4	50.4	95	49.0	0	1	270	0.00	29.825 
22:45	50.4	50.4	50.4	95	49.0	0	2	270	0.00	29.824 
22:50	50.4	50.4	50.4	95	49.0	0	3	315	0.00	29.824 
22:55	50.4	50.4	50.4	95	49.0	0	2	315	0.01	29.824 
23:00	50.4	50.4	50.4	95	49.0	0	1	248	0.00	29.825 
23:05	50.4	50.4	50.4	95	49.0	0	1	248	0.00	29.825 
23:10	50.4	50.4	50.4	95	49.0	0	2	248	0.00	29.825 
23:15	50.4	50.4	50.4	95	49.0	0	1	248	0.00	29.821 
23:20	50.4	50.4	50.4	95	49.0	0	1	248	0.01	29.821 
23:25	50.4	50.4	50.4	95	49.0	0	1	248	0.00	29.821 
23:30	50.2	50.2	50.2	95	48.8	1	2	248	0.00	29.812 
23:35	50.2	50.2	50.2	95	48.8	0	1	248	0.01	29.812 
23:40	50.2	50.2	50.2	95	48.8	0	2	248	0.00	29.812 
23:45	50.2	50.2	50.2	95	48.8	0	2	248	0.00	29.808 
23:50	50.2	50.2	50.2	95	48.8	0	2	248	0.00	29.808 
23:55	50.2	50.2	50.2	95	48.8	0	1	248	0.00	29.808 

CoCoRaHS
IN-AL-39
A2 Web Hosting
Creative Commons License
GoDaddy
Look for:

loaded 2017-10-20 19:57:01 • last modified 2010-11-18 10:43:29
Privacy PolicyDisclaimer
• wx.awcolley.com is powered by PmWiki v.2002016 •
• all content (unless otherwise noted) © 2017 A W Colley